createdAt,value
2023-02-11T00:00:50.027Z,99428.50
2023-02-11T00:04:51.656Z,99431.97
2023-02-11T00:08:54.951Z,99428.88
2023-02-11T00:12:56.458Z,99425.56
2023-02-11T00:16:57.890Z,99423.66
2023-02-11T00:20:59.282Z,99423.66
2023-02-11T00:25:02.016Z,99420.84
2023-02-11T00:29:03.982Z,99414.09
2023-02-11T00:33:05.311Z,99422.19
2023-02-11T00:37:08.417Z,99412.38
2023-02-11T00:41:11.276Z,99413.53
2023-02-11T00:45:12.786Z,99398.88
2023-02-11T00:49:14.317Z,99404.53
2023-02-11T00:53:15.653Z,99410.25
2023-02-11T00:57:18.379Z,99409.47
2023-02-11T01:01:20.066Z,99404.38
2023-02-11T01:05:21.511Z,99412.31
2023-02-11T01:09:22.922Z,99410.31
2023-02-11T01:13:26.184Z,99413.66
2023-02-11T01:17:27.565Z,99402.03
2023-02-11T01:21:28.933Z,99388.81
2023-02-11T01:25:30.293Z,99378.56
2023-02-11T01:29:33.073Z,99378.25
2023-02-11T01:33:34.464Z,99394.63
2023-02-11T01:37:35.942Z,99382.09
2023-02-11T01:41:37.558Z,99368.97
2023-02-11T01:45:53.526Z,99357.47
2023-02-11T01:49:56.570Z,99341.38
2023-02-11T01:53:58.452Z,99349.88
2023-02-11T01:58:02.412Z,99335.38
2023-02-11T02:02:08.449Z,99329.66
2023-02-11T02:06:15.436Z,99319.38
2023-02-11T02:10:18.827Z,99326.09
2023-02-11T02:14:20.296Z,99326.78
2023-02-11T02:18:28.291Z,99329.00
2023-02-11T02:22:48.090Z,99331.69
2023-02-11T02:27:13.877Z,99327.16
2023-02-11T02:31:25.913Z,99333.06
2023-02-11T02:35:36.171Z,99344.72
2023-02-11T02:39:37.848Z,99346.88
2023-02-11T02:43:40.954Z,99342.16
2023-02-11T02:47:42.495Z,99340.63
2023-02-11T02:52:08.188Z,99334.75
2023-02-11T02:56:13.773Z,99334.06
2023-02-11T03:00:21.701Z,99334.41
2023-02-11T03:04:26.268Z,99323.44
2023-02-11T03:08:30.501Z,99313.63
2023-02-11T03:12:34.875Z,99304.69
2023-02-11T03:16:36.777Z,99297.44
2023-02-11T03:20:40.441Z,99292.19
2023-02-11T03:24:42.024Z,99301.16
2023-02-11T03:28:49.454Z,99309.75
2023-02-11T03:32:51.989Z,99311.09
2023-02-11T03:36:56.350Z,99322.75
2023-02-11T03:40:58.625Z,99317.34
2023-02-11T03:45:03.588Z,99320.03
2023-02-11T03:49:09.102Z,99318.50
2023-02-11T03:53:11.915Z,99309.06
2023-02-11T03:57:13.297Z,99316.13
2023-02-11T04:01:16.160Z,99294.84
2023-02-11T04:05:17.687Z,99293.66
2023-02-11T04:09:19.006Z,99294.13
2023-02-11T04:13:20.445Z,99300.72
2023-02-11T04:17:23.245Z,99297.69
2023-02-11T04:21:24.667Z,99291.06
2023-02-11T04:25:26.033Z,99282.91
2023-02-11T04:29:27.492Z,99276.81
2023-02-11T04:33:30.227Z,99291.94
2023-02-11T04:37:31.645Z,99290.59
2023-02-11T04:41:32.992Z,99280.72
2023-02-11T04:45:34.410Z,99274.25
2023-02-11T04:49:37.206Z,99267.78
2023-02-11T04:53:38.571Z,99260.25
2023-02-11T04:57:39.988Z,99272.59
2023-02-11T05:01:41.361Z,99272.28
2023-02-11T05:05:44.151Z,99270.66
2023-02-11T05:09:45.561Z,99281.09
2023-02-11T05:13:47.236Z,99279.28
2023-02-11T05:17:48.596Z,99287.72
2023-02-11T05:22:02.233Z,99281.94
2023-02-11T05:26:04.425Z,99276.34
2023-02-11T05:30:06.368Z,99262.41
2023-02-11T05:34:07.799Z,99240.53
2023-02-11T05:38:10.548Z,99229.38
2023-02-11T05:42:11.888Z,99229.00
2023-02-11T05:46:13.443Z,99241.53
2023-02-11T05:50:14.897Z,99235.09
2023-02-11T05:54:17.640Z,99235.03
2023-02-11T05:58:19.020Z,99231.81
2023-02-11T06:02:20.379Z,99239.09
2023-02-11T06:06:21.739Z,99241.81
2023-02-11T06:10:24.481Z,99227.97
2023-02-11T06:14:25.830Z,99225.25
2023-02-11T06:18:27.203Z,99214.53
2023-02-11T06:22:28.735Z,99228.84
2023-02-11T06:26:32.473Z,99228.34
2023-02-11T06:30:33.876Z,99231.63
2023-02-11T06:34:35.528Z,99236.47
2023-02-11T06:38:36.876Z,99246.56
2023-02-11T06:42:39.738Z,99250.03
2023-02-11T06:46:41.151Z,99242.56
2023-02-11T06:50:42.513Z,99244.25
2023-02-11T06:54:43.865Z,99235.56
2023-02-11T06:58:46.610Z,99221.06
2023-02-11T07:02:48.027Z,99217.31
2023-02-11T07:06:49.489Z,99226.78
2023-02-11T07:10:50.846Z,99224.53
2023-02-11T07:14:53.550Z,99228.16
2023-02-11T07:18:54.900Z,99233.78
2023-02-11T07:22:56.247Z,99231.91
2023-02-11T07:26:57.680Z,99230.53
2023-02-11T07:31:05.518Z,99225.44
2023-02-11T07:35:07.216Z,99236.31
2023-02-11T07:39:08.597Z,99243.72
2023-02-11T07:43:09.944Z,99242.25
2023-02-11T07:47:12.662Z,99252.53
2023-02-11T07:51:14.665Z,99254.31
2023-02-11T07:55:16.067Z,99252.25
2023-02-11T07:59:17.425Z,99258.09
2023-02-11T08:03:20.152Z,99254.16
2023-02-11T08:07:21.499Z,99250.41
2023-02-11T08:11:23.719Z,99249.94
2023-02-11T08:15:25.117Z,99250.38
2023-02-11T08:19:27.814Z,99246.09
2023-02-11T08:23:29.204Z,99242.47
2023-02-11T08:27:30.609Z,99247.34
2023-02-11T08:31:35.201Z,99263.53
2023-02-11T08:35:38.022Z,99263.03
2023-02-11T08:39:39.378Z,99267.28
2023-02-11T08:43:41.191Z,99268.81
2023-02-11T08:47:42.532Z,99266.03
2023-02-11T08:51:45.391Z,99276.09
2023-02-11T08:55:48.795Z,99269.22
2023-02-11T08:59:50.304Z,99269.94
2023-02-11T09:03:51.741Z,99265.09
2023-02-11T09:07:54.496Z,99258.16
2023-02-11T09:11:56.076Z,99266.91
2023-02-11T09:15:57.694Z,99258.28
2023-02-11T09:19:59.135Z,99261.56
2023-02-11T09:24:01.902Z,99245.69
2023-02-11T09:28:03.427Z,99265.41
2023-02-11T09:32:07.250Z,99259.97
2023-02-11T09:36:09.967Z,99257.41
2023-02-11T09:40:12.842Z,99252.84
2023-02-11T09:44:17.560Z,99253.63
2023-02-11T09:48:20.180Z,99252.78
2023-02-11T09:52:29.827Z,99251.53
2023-02-11T09:56:32.583Z,99261.84
2023-02-11T10:00:37.075Z,99267.13
2023-02-11T10:04:46.154Z,99258.31
2023-02-11T10:08:52.774Z,99266.09
2023-02-11T10:13:01.608Z,99266.97
2023-02-11T10:17:12.266Z,99263.38
2023-02-11T10:21:19.583Z,99258.13
2023-02-11T10:25:22.153Z,99253.72
2023-02-11T10:29:33.415Z,99242.81
2023-02-11T10:33:39.251Z,99243.22
2023-02-11T10:37:42.423Z,99240.09
2023-02-11T10:41:47.367Z,99229.56
2023-02-11T10:45:51.256Z,99221.56
2023-02-11T10:49:52.593Z,99230.81
2023-02-11T10:54:13.555Z,99228.50
2023-02-11T10:58:23.142Z,99220.09
2023-02-11T11:02:28.113Z,99223.03
2023-02-11T11:06:30.673Z,99216.72
2023-02-11T11:10:36.686Z,99208.97
2023-02-11T11:14:38.042Z,99215.69
2023-02-11T11:18:41.855Z,99217.78
2023-02-11T11:22:43.547Z,99212.75
2023-02-11T11:26:46.152Z,99224.50
2023-02-11T11:30:47.749Z,99213.38
2023-02-11T11:34:51.410Z,99213.09
2023-02-11T11:38:55.598Z,99202.66
2023-02-11T11:43:03.294Z,99195.78
2023-02-11T11:47:28.759Z,99191.53
2023-02-11T11:51:32.315Z,99195.41
2023-02-11T11:55:37.900Z,99188.19
2023-02-11T11:59:39.357Z,99184.94
2023-02-11T12:03:55.599Z,99182.84
2023-02-11T12:08:03.788Z,99177.31
2023-02-11T12:12:10.357Z,99175.41
2023-02-11T12:16:17.515Z,99163.09
2023-02-11T12:20:30.738Z,99173.50
2023-02-11T12:24:45.030Z,99152.13
2023-02-11T12:28:53.651Z,99153.41
2023-02-11T12:32:59.895Z,99161.03
2023-02-11T12:37:06.199Z,99143.38
2023-02-11T12:41:23.607Z,99127.44
2023-02-11T12:45:31.267Z,99137.94
2023-02-11T12:49:39.321Z,99142.00
2023-02-11T12:53:49.846Z,99129.56
2023-02-11T12:57:54.910Z,99118.00
2023-02-11T13:01:57.610Z,99117.06
2023-02-11T13:06:01.807Z,99122.84
2023-02-11T13:10:05.723Z,99129.13
2023-02-11T13:14:12.590Z,99141.53
2023-02-11T13:18:25.153Z,99133.34
2023-02-11T13:22:28.637Z,99135.13
2023-02-11T13:26:33.381Z,99134.69
2023-02-11T13:30:37.202Z,99135.97
2023-02-11T13:34:59.555Z,99133.03
2023-02-11T13:39:02.403Z,99121.72
2023-02-11T13:43:04.983Z,99114.41
2023-02-11T13:47:07.898Z,99113.94
2023-02-11T13:51:10.883Z,99118.91
2023-02-11T13:55:19.901Z,99122.28
2023-02-11T13:59:36.117Z,99116.44
2023-02-11T14:03:39.322Z,99110.47
2023-02-11T14:08:00.702Z,99107.44
2023-02-11T14:12:22.616Z,99098.84
2023-02-11T14:16:36.918Z,99097.69
2023-02-11T14:20:43.008Z,99101.88
2023-02-11T14:24:49.671Z,99116.19
2023-02-11T14:28:52.322Z,99114.78
2023-02-11T14:33:06.876Z,99108.94
2023-02-11T14:37:14.269Z,99113.72
2023-02-11T14:41:18.230Z,99095.06
2023-02-11T14:45:21.256Z,99091.97
2023-02-11T14:49:25.003Z,99099.84
2023-02-11T14:53:28.818Z,99100.03
2023-02-11T14:57:30.140Z,99085.78
2023-02-11T15:01:32.624Z,99093.44
2023-02-11T15:05:34.611Z,99088.06
2023-02-11T15:09:40.801Z,99085.66
2023-02-11T15:13:42.598Z,99090.59
2023-02-11T15:17:44.267Z,99096.66
2023-02-11T15:21:46.086Z,99103.94
2023-02-11T15:25:48.787Z,99099.38
2023-02-11T15:29:50.531Z,99115.97
2023-02-11T15:33:52.486Z,99120.66
2023-02-11T15:37:54.272Z,99118.09
2023-02-11T15:41:57.202Z,99125.34
2023-02-11T15:45:59.892Z,99117.88
2023-02-11T15:50:01.622Z,99122.53
2023-02-11T15:54:04.141Z,99125.97
2023-02-11T15:58:09.302Z,99129.88
2023-02-11T16:02:15.924Z,99120.88
2023-02-11T16:06:21.310Z,99121.34
2023-02-11T16:10:24.310Z,99117.03
2023-02-11T16:14:30.250Z,99133.25
2023-02-11T16:18:39.655Z,99138.72
2023-02-11T16:22:45.833Z,99158.03
2023-02-11T16:26:48.727Z,99154.03
2023-02-11T16:30:53.858Z,99156.59
2023-02-11T16:34:56.501Z,99150.97
2023-02-11T16:38:57.889Z,99168.19
2023-02-11T16:42:59.226Z,99181.47
2023-02-11T16:47:02.872Z,99187.78
2023-02-11T16:51:04.397Z,99186.13
2023-02-11T16:55:06.159Z,99177.69
2023-02-11T16:59:07.527Z,99177.50
2023-02-11T17:03:15.094Z,99193.91
2023-02-11T17:07:16.412Z,99198.53
2023-02-11T17:11:17.727Z,99201.44
2023-02-11T17:15:19.061Z,99201.25
2023-02-11T17:19:21.762Z,99205.84
2023-02-11T17:23:23.097Z,99214.06
2023-02-11T17:27:24.425Z,99214.03
2023-02-11T17:31:25.841Z,99206.06
2023-02-11T17:35:28.600Z,99212.38
2023-02-11T17:39:29.976Z,99223.91
2023-02-11T17:43:31.565Z,99224.53
2023-02-11T17:47:33.011Z,99219.50
2023-02-11T17:51:36.666Z,99216.53
2023-02-11T17:55:37.994Z,99230.59
2023-02-11T17:59:39.548Z,99228.31
2023-02-11T18:03:40.930Z,99228.31
2023-02-11T18:07:43.625Z,99224.13
2023-02-11T18:11:45.276Z,99238.38
2023-02-11T18:15:46.700Z,99239.44
2023-02-11T18:19:48.458Z,99229.78
2023-02-11T18:23:51.216Z,99239.44
2023-02-11T18:27:52.550Z,99240.91
2023-02-11T18:31:54.799Z,99243.19
2023-02-11T18:35:56.170Z,99250.56
2023-02-11T18:39:58.864Z,99239.81
2023-02-11T18:44:00.208Z,99251.13
2023-02-11T18:48:01.536Z,99262.72
2023-02-11T18:52:03.531Z,99258.09
2023-02-11T18:56:10.277Z,99248.44
2023-02-11T19:00:12.223Z,99254.31
2023-02-11T19:04:13.677Z,99253.03
2023-02-11T19:08:15.353Z,99257.88
2023-02-11T19:12:18.021Z,99263.94
2023-02-11T19:16:19.401Z,99265.22
2023-02-11T19:20:20.820Z,99271.75
2023-02-11T19:24:22.855Z,99267.50
2023-02-11T19:28:25.608Z,99283.03
2023-02-11T19:32:27.018Z,99272.34
2023-02-11T19:36:28.356Z,99281.13
2023-02-11T19:40:29.724Z,99276.31
2023-02-11T19:44:32.408Z,99270.22
2023-02-11T19:48:33.785Z,99266.25
2023-02-11T19:52:37.228Z,99262.09
2023-02-11T19:56:38.583Z,99256.19
2023-02-11T20:00:41.642Z,99255.34
2023-02-11T20:04:42.976Z,99264.34
2023-02-11T20:08:44.305Z,99255.13
2023-02-11T20:12:45.641Z,99257.69
2023-02-11T20:16:49.992Z,99251.78
2023-02-11T20:20:51.618Z,99249.88
2023-02-11T20:24:52.939Z,99259.72
2023-02-11T20:28:55.100Z,99272.72
2023-02-11T20:32:57.801Z,99283.63
2023-02-11T20:36:59.127Z,99288.66
2023-02-11T20:41:02.556Z,99282.78
2023-02-11T20:45:04.110Z,99277.94
2023-02-11T20:49:07.104Z,99279.38
2023-02-11T20:53:08.437Z,99277.75
2023-02-11T20:57:09.770Z,99272.72
2023-02-11T21:01:12.508Z,99275.44
2023-02-11T21:05:15.186Z,99277.38
2023-02-11T21:09:17.714Z,99279.47
2023-02-11T21:13:19.092Z,99281.13
2023-02-11T21:17:20.703Z,99275.91
2023-02-11T21:21:23.559Z,99289.13
2023-02-11T21:25:24.919Z,99285.75
2023-02-11T21:29:26.266Z,99291.22
2023-02-11T21:33:28.242Z,99292.69
2023-02-11T21:37:31.165Z,99302.94
2023-02-11T21:41:32.813Z,99302.28
2023-02-11T21:45:34.151Z,99306.00
2023-02-11T21:49:35.468Z,99314.81
2023-02-11T21:53:38.520Z,99318.75
2023-02-11T21:57:39.919Z,99316.50
2023-02-11T22:01:41.262Z,99321.38
2023-02-11T22:05:42.617Z,99318.03
2023-02-11T22:09:45.288Z,99329.53
2023-02-11T22:13:46.883Z,99320.53
2023-02-11T22:17:48.216Z,99319.31
2023-02-11T22:21:49.740Z,99312.59
2023-02-11T22:25:52.735Z,99315.09
2023-02-11T22:29:54.246Z,99306.91
2023-02-11T22:33:55.856Z,99315.53
2023-02-11T22:37:57.199Z,99315.75
2023-02-11T22:41:59.892Z,99308.19
2023-02-11T22:46:01.704Z,99319.09
2023-02-11T22:50:03.058Z,99323.81
2023-02-11T22:54:05.291Z,99320.22
2023-02-11T22:58:07.982Z,99321.50
2023-02-11T23:02:09.428Z,99332.38
2023-02-11T23:06:11.390Z,99330.09
2023-02-11T23:10:12.715Z,99330.69
2023-02-11T23:14:15.413Z,99323.34
2023-02-11T23:18:16.760Z,99322.53
2023-02-11T23:22:18.099Z,99340.72
2023-02-11T23:26:19.486Z,99332.75
2023-02-11T23:30:22.183Z,99333.59
2023-02-11T23:34:23.658Z,99339.25
2023-02-11T23:38:25.090Z,99337.97
2023-02-11T23:42:26.482Z,99335.94
2023-02-11T23:46:29.351Z,99339.06
2023-02-11T23:50:30.757Z,99335.06
2023-02-11T23:54:32.351Z,99331.88
2023-02-11T23:58:33.740Z,99327.47
